Terminal Aerodrome Forecast
Issued by NWS

Home | Current Version | Previous Version | Text Only | Print | Product List | Glossary On
Versions: 1 2 3 4 5 6 7 8 9 10 11 12 13 14 15 16 17 18 19 20 21 22 23 24 25 26 27 28 29 30 31 32 33 34 35 36 37 38 39 40
000
FTUS41 KBOX 301738
TAFFMH
TAF
KFMH 301738Z 3018/3118 22015G23KT P6SM FEW250
     FM310300 22012KT 1SM BR OVC003
     FM311000 22012KT 1/2SM FG OVC001
     FM311500 23012G21KT P6SM BKN003=

USA.gov is the U.S. government's official web portal to all federal, state and local government web resources and services.